Khabarovsk-Novy Airport
UHHH : now visible

Airfield :











YOU CAN JOIN US ON...

 
LOGIN :

Register | Disclaimer

   EN    FR    IT 

 









Legend :    VFR   Marginal VFR   IFR   Intensive IFR   Very Intensive IFR
Visi :
Ceiling :
>= 8 km
>= 3000ft
5 to 8 km
1000 to 3000 ft
1500m to 5 km
500 to 1000 ft
800 to 1500m
200 to 500 ft
< 800m
< 200 ft
Symbols :   Thunderstorms  Fog  Heavy snow  Heavy precipitations  Wind > 20 kt






- Airport Elevation : 244 ft
- IATA code : KHV


UHHH - Khabarovsk-Novy

CURRENT METAR :
  • 260500Z 05005MPS 010V090 CAVOK 16/03 Q1008 R88/090060 NOSIG RMK QFE749/0999

EXPIRED METARs :
  • 260430Z 06004G09MPS 020V110 CAVOK 16/05 Q1008 R88/090060 NOSIG RMK QFE750/1000
  • 260400Z 06005MPS CAVOK 16/05 Q1008 R88/090060 NOSIG RMK QFE750/1000
  • 260330Z 06005MPS 020V090 CAVOK 16/05 Q1009 R88/090060 NOSIG RMK QFE750/1001
  • 260300Z 05005MPS 020V080 CAVOK 16/05 Q1009 R88/090060 NOSIG RMK QFE750/1001
  • 260230Z 06005MPS 020V110 CAVOK 15/06 Q1010 R88/090060 NOSIG RMK QFE751/1001
  • 260200Z 05006MPS CAVOK 15/05 Q1010 R88/090060 NOSIG RMK QFE751/1002
  • 260130Z 04006MPS CAVOK 14/04 Q1010 R88/090060 NOSIG RMK QFE751/1002
  • 260100Z 05006MPS CAVOK 14/05 Q1011 R88/090060 NOSIG RMK QFE752/1002
  • 260030Z 06006MPS CAVOK 13/06 Q1011 R88/090060 NOSIG RMK QFE752/1003

TAF TAF UHHH
Valid from the 26 at 03:00 until the 27 at 09:00 UTC


260150Z 2603/2709 05006MPS 9999 SCT025
TEMPO 2603/2618 06006G11MPS
UHHH FIR / Asia



MET'MAP, your aeronautical weather chart ! - Copyright ORBIFLY December 2007 - Disclaimer

ORBIFLY MET'MAP TEAM :

Programming & Development : Alexandra Zaïnal
Original concept : Baudouin d'Aumeries
Technical & hardware support : Manuel Goepfert
Assistance : Marc-Olivier Méhu




SOURCES & CREDITS :

   NOAA       Earth
Advisory